Time;durP1;ratioP1;P1;durP2;ratioP2;P2;SDS_P1;SDS_P2;PMS_P1;PMS_P2;Temp;Humidity;BMP_temperature;BMP_pressure;BME280_temperature;BME280_humidity;BME280_pressure;Samples;Min_cycle;Max_cycle;Signal;HPM_P1;HPM_P2
2023/11/20 00:00:06;;;;;;;6.15;1.35;;;11.70;99.90;;;;;;4963730;28;20030;-64
2023/11/20 00:02:42;;;;;;;6.00;1.45;;;11.70;99.90;;;;;;4964241;28;20039;-64
2023/11/20 00:05:09;;;;;;;13.10;1.85;;;11.70;99.90;;;;;;4963194;28;20034;-64
2023/11/20 00:07:36;;;;;;;8.40;1.58;;;11.50;99.90;;;;;;4958501;28;20034;-64
2023/11/20 00:10:04;;;;;;;6.90;1.75;;;11.50;99.90;;;;;;4962515;28;20031;-64
2023/11/20 00:12:32;;;;;;;6.70;2.13;;;11.50;99.90;;;;;;4962060;28;20042;-64
2023/11/20 00:14:58;;;;;;;10.15;2.10;;;11.60;99.90;;;;;;4963897;28;20040;-65
2023/11/20 00:17:25;;;;;;;3.65;1.15;;;11.60;99.90;;;;;;4962328;28;20495;-64
2023/11/20 00:19:51;;;;;;;10.50;1.67;;;11.60;99.90;;;;;;4961706;28;20487;-65
2023/11/20 00:22:17;;;;;;;5.75;1.33;;;11.70;99.90;;;;;;4964811;28;20407;-64
2023/11/20 00:24:43;;;;;;;7.78;1.27;;;11.60;99.90;;;;;;4938024;28;20037;-64
2023/11/20 00:27:09;;;;;;;6.70;1.45;;;11.60;99.90;;;;;;4962456;28;20031;-64
2023/11/20 00:29:37;;;;;;;6.45;1.65;;;11.60;99.90;;;;;;4960398;28;20056;-64
2023/11/20 00:32:03;;;;;;;9.23;1.40;;;11.50;99.90;;;;;;4962251;28;20069;-64
2023/11/20 00:34:29;;;;;;;8.63;2.03;;;11.50;99.90;;;;;;4965117;28;20035;-64
2023/11/20 00:36:55;;;;;;;5.82;1.48;;;11.50;99.90;;;;;;4960878;28;20035;-64
2023/11/20 00:39:21;;;;;;;6.68;1.85;;;11.40;99.90;;;;;;4961257;28;20499;-64
2023/11/20 00:41:47;;;;;;;5.80;1.70;;;11.50;99.90;;;;;;4959646;28;20066;-64
2023/11/20 00:44:14;;;;;;;10.02;1.70;;;11.50;99.90;;;;;;4963736;28;20039;-65
2023/11/20 00:46:40;;;;;;;11.93;2.03;;;11.50;99.90;;;;;;4959738;28;20037;-64
2023/11/20 00:49:07;;;;;;;8.20;1.27;;;11.50;99.90;;;;;;4960284;28;20117;-65
2023/11/20 00:51:33;;;;;;;3.03;1.15;;;11.50;99.90;;;;;;4949413;28;20105;-64
2023/11/20 00:53:58;;;;;;;4.90;1.30;;;11.50;99.90;;;;;;4944620;28;20310;-64
2023/11/20 00:56:25;;;;;;;7.00;1.38;;;11.60;99.90;;;;;;4946042;28;20491;-64
2023/11/20 00:58:50;;;;;;;7.07;1.80;;;11.60;99.90;;;;;;4944841;28;20585;-64
2023/11/20 01:01:17;;;;;;;10.40;1.75;;;11.70;99.90;;;;;;4933060;29;20125;-64
2023/11/20 01:03:43;;;;;;;4.68;1.27;;;11.70;99.90;;;;;;4957962;28;20088;-64
2023/11/20 01:06:10;;;;;;;5.55;1.40;;;11.60;99.90;;;;;;4961295;28;20134;-64
2023/11/20 01:08:36;;;;;;;7.22;1.63;;;11.60;99.90;;;;;;4964112;28;20482;-64
2023/11/20 01:11:06;;;;;;;14.88;2.63;;;11.60;99.90;;;;;;4960618;28;20026;-64
2023/11/20 01:13:32;;;;;;;6.53;1.63;;;11.50;99.90;;;;;;4963791;28;20802;-64
2023/11/20 01:15:58;;;;;;;8.43;1.45;;;11.40;99.90;;;;;;4962658;28;20046;-64
2023/11/20 01:18:24;;;;;;;6.85;1.80;;;11.40;99.90;;;;;;4963012;28;20077;-64
2023/11/20 01:20:50;;;;;;;6.10;1.30;;;11.50;99.90;;;;;;4945820;28;20038;-64
2023/11/20 01:23:16;;;;;;;3.83;1.02;;;11.50;99.90;;;;;;4942288;28;20066;-64
2023/11/20 01:25:42;;;;;;;3.85;1.58;;;11.50;99.90;;;;;;4944734;28;20502;-64
2023/11/20 01:28:08;;;;;;;5.97;1.98;;;11.40;99.90;;;;;;4958494;28;20070;-64
2023/11/20 01:30:34;;;;;;;5.18;1.30;;;11.40;99.90;;;;;;4952593;28;20026;-64
2023/11/20 01:32:59;;;;;;;7.90;1.45;;;11.40;99.90;;;;;;4965526;28;20546;-64
2023/11/20 01:35:25;;;;;;;2.85;0.90;;;11.40;99.90;;;;;;4950103;28;20035;-64
2023/11/20 01:37:51;;;;;;;6.88;1.08;;;11.30;99.90;;;;;;4946287;28;20443;-64
2023/11/20 01:40:17;;;;;;;3.13;1.10;;;11.30;99.90;;;;;;4964854;28;20941;-64
2023/11/20 01:42:43;;;;;;;4.03;1.25;;;11.20;99.90;;;;;;4950335;28;20039;-65
2023/11/20 01:45:09;;;;;;;3.95;0.95;;;11.20;99.90;;;;;;4962016;28;20035;-64
2023/11/20 01:47:36;;;;;;;3.42;1.10;;;11.20;99.90;;;;;;4960509;28;20652;-64
2023/11/20 01:50:10;;;;;;;6.05;1.27;;;11.30;99.90;;;;;;4951027;28;20027;-64
2023/11/20 01:52:47;;;;;;;6.07;1.17;;;11.30;99.90;;;;;;4955113;28;20039;-64
2023/11/20 01:55:14;;;;;;;4.05;0.95;;;11.20;99.90;;;;;;4960467;28;20054;-65
2023/11/20 01:57:43;;;;;;;9.23;1.83;;;11.20;99.90;;;;;;4947348;28;20031;-65
2023/11/20 02:00:12;;;;;;;6.72;1.38;;;11.10;99.90;;;;;;4962238;28;20848;-65
2023/11/20 02:02:42;;;;;;;6.30;1.38;;;11.00;99.90;;;;;;4943844;28;20077;-65
2023/11/20 02:05:09;;;;;;;8.32;1.60;;;11.00;99.90;;;;;;4949972;28;20022;-65
2023/11/20 02:07:36;;;;;;;5.70;1.52;;;11.10;99.90;;;;;;4944075;28;20451;-65
2023/11/20 02:10:07;;;;;;;7.82;1.92;;;11.10;99.90;;;;;;4960196;28;20023;-65
2023/11/20 02:12:33;;;;;;;4.00;1.13;;;11.00;99.90;;;;;;4950144;28;20126;-65
2023/11/20 02:14:59;;;;;;;7.85;1.42;;;11.10;99.90;;;;;;4929305;28;20554;-65
2023/11/20 02:17:26;;;;;;;4.55;1.33;;;11.10;99.90;;;;;;4941045;28;20069;-67
2023/11/20 02:19:52;;;;;;;6.22;1.90;;;11.20;99.90;;;;;;4963761;28;20034;-64
2023/11/20 02:22:18;;;;;;;5.22;1.52;;;11.20;99.90;;;;;;4945199;28;20050;-64
2023/11/20 02:24:46;;;;;;;2.67;1.13;;;11.10;99.90;;;;;;4962034;28;20031;-64
2023/11/20 02:27:36;;;;;;;8.07;1.25;;;11.10;99.90;;;;;;4942010;28;20030;-65
2023/11/20 02:30:04;;;;;;;2.60;0.90;;;11.10;99.90;;;;;;4961376;28;20022;-64
2023/11/20 02:32:30;;;;;;;1.05;0.85;;;11.20;99.90;;;;;;4968016;28;20574;-65
2023/11/20 02:34:56;;;;;;;3.17;1.00;;;11.20;99.90;;;;;;4949538;28;20373;-66
2023/11/20 02:37:22;;;;;;;7.20;1.55;;;11.30;99.90;;;;;;4961771;28;20022;-65
2023/11/20 02:39:51;;;;;;;3.42;1.10;;;11.30;99.90;;;;;;4950951;28;20490;-65
2023/11/20 02:42:20;;;;;;;2.50;1.23;;;11.30;99.90;;;;;;4961145;28;20530;-65
2023/11/20 02:44:47;;;;;;;6.03;1.25;;;11.40;99.90;;;;;;4965936;28;20031;-65
2023/11/20 02:47:13;;;;;;;4.15;1.38;;;11.40;99.90;;;;;;4961016;28;20038;-65
2023/11/20 02:49:39;;;;;;;6.43;1.30;;;11.40;99.90;;;;;;4958287;28;20046;-65
2023/11/20 02:52:06;;;;;;;7.15;1.13;;;11.40;99.90;;;;;;4948072;28;20035;-65
2023/11/20 02:54:33;;;;;;;6.57;1.13;;;11.40;99.90;;;;;;4959366;28;20764;-65
2023/11/20 02:57:00;;;;;;;4.70;1.20;;;11.40;99.90;;;;;;4962952;28;20137;-65
2023/11/20 02:59:29;;;;;;;4.47;1.27;;;11.40;99.90;;;;;;4943039;28;20062;-65
2023/11/20 03:01:55;;;;;;;3.25;1.13;;;11.40;99.90;;;;;;4961204;28;20039;-65
2023/11/20 03:04:21;;;;;;;1.60;0.73;;;11.40;99.90;;;;;;4948569;28;20037;-65
2023/11/20 03:06:47;;;;;;;5.00;1.05;;;11.50;99.90;;;;;;4941389;28;20039;-65
2023/11/20 03:09:13;;;;;;;6.18;0.93;;;11.40;99.90;;;;;;4954118;28;20076;-65
2023/11/20 03:11:39;;;;;;;2.92;0.65;;;11.50;99.90;;;;;;4945403;28;20043;-65
2023/11/20 03:14:05;;;;;;;1.63;0.70;;;11.50;99.90;;;;;;4964322;28;20031;-65
2023/11/20 03:16:31;;;;;;;3.75;1.05;;;11.40;99.90;;;;;;4949401;28;20031;-65
2023/11/20 03:18:58;;;;;;;4.88;1.00;;;11.40;99.90;;;;;;4963177;28;20530;-65
2023/11/20 03:21:30;;;;;;;4.85;0.93;;;11.50;99.90;;;;;;4948651;28;20031;-65
2023/11/20 03:23:56;;;;;;;4.85;1.48;;;11.30;99.90;;;;;;4943400;28;20035;-65
2023/11/20 03:26:25;;;;;;;4.07;1.17;;;11.30;99.90;;;;;;4964914;28;20749;-65
2023/11/20 03:28:52;;;;;;;3.55;1.30;;;11.30;99.90;;;;;;4942612;28;20031;-64
2023/11/20 03:31:19;;;;;;;3.80;0.65;;;11.30;99.90;;;;;;4951406;28;20023;-65
2023/11/20 03:33:46;;;;;;;5.20;1.30;;;11.30;99.90;;;;;;4942751;28;20403;-65
2023/11/20 03:36:15;;;;;;;3.05;1.17;;;11.30;99.90;;;;;;4965915;28;20043;-65
2023/11/20 03:38:42;;;;;;;3.70;0.82;;;11.40;99.90;;;;;;4959379;28;20035;-65
2023/11/20 03:41:08;;;;;;;2.55;0.88;;;11.40;99.90;;;;;;4961844;28;20536;-65
2023/11/20 03:43:35;;;;;;;5.80;1.65;;;11.40;99.90;;;;;;4960537;28;20038;-65
2023/11/20 03:46:01;;;;;;;3.92;1.10;;;11.40;99.90;;;;;;4961537;28;20041;-65
2023/11/20 03:48:27;;;;;;;5.28;0.93;;;11.50;99.90;;;;;;4950183;28;20050;-64
2023/11/20 03:50:53;;;;;;;3.83;1.30;;;11.50;99.90;;;;;;4949217;28;20038;-65
2023/11/20 03:53:19;;;;;;;6.70;1.17;;;11.60;99.90;;;;;;4945586;28;20038;-64
2023/11/20 03:55:45;;;;;;;1.60;0.70;;;11.60;99.90;;;;;;4962908;28;20023;-65
2023/11/20 03:58:11;;;;;;;1.02;0.60;;;11.60;99.90;;;;;;4947458;28;20170;-65
2023/11/20 04:00:37;;;;;;;5.15;1.52;;;11.50;99.90;;;;;;4963457;28;20746;-65
2023/11/20 04:03:03;;;;;;;1.45;0.55;;;11.50;99.90;;;;;;4964895;28;20054;-64
2023/11/20 04:05:29;;;;;;;2.67;0.80;;;11.60;99.90;;;;;;4941425;28;20591;-65
2023/11/20 04:07:55;;;;;;;3.15;0.70;;;11.50;99.90;;;;;;4947352;28;20034;-64
2023/11/20 04:10:22;;;;;;;4.22;0.93;;;11.50;99.90;;;;;;4942891;28;20034;-64
2023/11/20 04:12:48;;;;;;;2.47;0.70;;;11.60;99.90;;;;;;4949265;28;20491;-65
2023/11/20 04:15:14;;;;;;;4.32;0.90;;;11.50;99.90;;;;;;4947701;28;20042;-65
2023/11/20 04:17:40;;;;;;;1.80;0.60;;;11.50;99.90;;;;;;4964783;28;20027;-65
2023/11/20 04:20:06;;;;;;;2.88;0.70;;;11.50;99.90;;;;;;4947575;28;20029;-65
2023/11/20 04:22:33;;;;;;;2.97;0.60;;;11.50;99.90;;;;;;4944966;28;20118;-64
2023/11/20 04:25:00;;;;;;;1.05;0.55;;;11.50;99.90;;;;;;4961818;28;20114;-64
2023/11/20 04:27:26;;;;;;;0.55;0.47;;;11.50;99.90;;;;;;4961161;28;20054;-64
2023/11/20 04:29:53;;;;;;;1.65;0.40;;;11.40;99.90;;;;;;4963607;28;20035;-64
2023/11/20 04:32:19;;;;;;;0.38;0.38;;;11.40;99.90;;;;;;4963185;28;20113;-65
2023/11/20 04:34:44;;;;;;;2.95;0.60;;;11.40;99.90;;;;;;4961522;28;20134;-64
2023/11/20 04:37:10;;;;;;;1.50;0.52;;;11.40;99.90;;;;;;4948540;28;20038;-64
2023/11/20 04:39:36;;;;;;;1.02;0.30;;;11.40;99.90;;;;;;4962559;28;20572;-64
2023/11/20 04:42:03;;;;;;;0.93;0.52;;;11.50;99.90;;;;;;4961621;28;20858;-64
2023/11/20 04:44:29;;;;;;;1.70;0.63;;;11.50;99.90;;;;;;4962989;28;20081;-65
2023/11/20 04:46:55;;;;;;;3.20;0.57;;;11.50;99.90;;;;;;4960472;28;20050;-65
2023/11/20 04:49:22;;;;;;;1.90;0.47;;;11.50;99.90;;;;;;4963504;28;20406;-65
2023/11/20 04:51:48;;;;;;;1.20;0.30;;;11.50;99.90;;;;;;4959959;28;20027;-65
2023/11/20 04:54:14;;;;;;;0.13;0.13;;;11.50;99.90;;;;;;4962720;28;20749;-65
2023/11/20 04:56:40;;;;;;;0.30;0.22;;;11.50;99.90;;;;;;4959063;28;20042;-65
2023/11/20 04:59:06;;;;;;;5.32;0.52;;;11.50;99.90;;;;;;4961153;28;20050;-65
2023/11/20 05:01:32;;;;;;;1.30;0.60;;;11.60;99.90;;;;;;4965281;28;20041;-65
2023/11/20 05:04:01;;;;;;;1.05;0.47;;;11.50;99.90;;;;;;4961783;28;20046;-65
2023/11/20 05:06:27;;;;;;;1.40;0.50;;;11.50;99.90;;;;;;4963752;28;20071;-64
2023/11/20 05:08:53;;;;;;;2.20;0.65;;;11.50;99.90;;;;;;4962285;28;20058;-65
2023/11/20 05:11:19;;;;;;;1.38;0.52;;;11.50;99.90;;;;;;4962941;28;20027;-65
2023/11/20 05:13:45;;;;;;;2.10;0.60;;;11.50;99.90;;;;;;4964829;28;20090;-65
2023/11/20 05:16:11;;;;;;;2.47;0.40;;;11.50;99.90;;;;;;4961319;28;20031;-65
2023/11/20 05:18:37;;;;;;;1.48;0.60;;;11.50;99.90;;;;;;4962036;28;20063;-65
2023/11/20 05:21:03;;;;;;;1.48;0.75;;;11.50;99.90;;;;;;4962298;28;20113;-65
2023/11/20 05:23:28;;;;;;;0.40;0.40;;;11.40;99.90;;;;;;4960141;28;20054;-65
2023/11/20 05:25:55;;;;;;;2.17;0.50;;;11.40;99.90;;;;;;4964406;28;20027;-65
2023/11/20 05:28:22;;;;;;;0.47;0.35;;;11.40;99.90;;;;;;4958632;28;20031;-65
2023/11/20 05:30:48;;;;;;;0.60;0.38;;;11.40;99.90;;;;;;4962056;28;20058;-64
2023/11/20 05:33:14;;;;;;;0.45;0.10;;;11.50;99.90;;;;;;4965169;28;20766;-65
2023/11/20 05:35:40;;;;;;;0.30;0.20;;;11.50;99.90;;;;;;4960942;28;20038;-65
2023/11/20 05:38:06;;;;;;;0.65;0.20;;;11.60;99.90;;;;;;4962087;28;20023;-65
2023/11/20 05:40:35;;;;;;;0.73;0.30;;;11.60;99.90;;;;;;4961226;28;20406;-65
2023/11/20 05:43:02;;;;;;;0.10;0.10;;;11.60;99.90;;;;;;4960914;28;20882;-65
2023/11/20 05:45:28;;;;;;;0.10;0.10;;;11.70;99.90;;;;;;4960531;28;20038;-65
2023/11/20 05:47:54;;;;;;;0.52;0.22;;;11.70;99.90;;;;;;4962002;28;20408;-64
2023/11/20 05:50:20;;;;;;;0.00;0.00;;;11.70;99.90;;;;;;4961389;28;20045;-64
2023/11/20 05:52:46;;;;;;;0.10;0.10;;;11.80;99.90;;;;;;4965481;28;20460;-65
2023/11/20 05:55:13;;;;;;;0.40;0.30;;;11.80;99.90;;;;;;4961895;28;20435;-64
2023/11/20 05:57:39;;;;;;;0.30;0.10;;;11.90;99.90;;;;;;4960170;28;20050;-64
2023/11/20 06:00:10;;;;;;;0.55;0.20;;;11.80;99.90;;;;;;4964427;28;20118;-65
2023/11/20 06:02:39;;;;;;;0.10;0.10;;;11.90;99.90;;;;;;4960810;28;20034;-65
2023/11/20 06:05:05;;;;;;;0.20;0.20;;;11.90;99.90;;;;;;4964981;28;20901;-64
2023/11/20 06:07:31;;;;;;;1.92;0.65;;;11.90;99.90;;;;;;4969059;28;20113;-65
2023/11/20 06:09:57;;;;;;;0.32;0.28;;;11.90;99.90;;;;;;4968252;28;20702;-65
2023/11/20 06:12:23;;;;;;;0.82;0.30;;;11.80;99.90;;;;;;4961414;28;20045;-65
2023/11/20 06:14:49;;;;;;;0.65;0.40;;;11.90;99.90;;;;;;4971527;28;20623;-65
2023/11/20 06:17:15;;;;;;;0.40;0.30;;;11.90;99.90;;;;;;4965656;28;20039;-65
2023/11/20 06:19:42;;;;;;;0.35;0.20;;;11.90;99.90;;;;;;4966393;28;20052;-65
2023/11/20 06:22:09;;;;;;;0.88;0.30;;;11.90;99.90;;;;;;4962680;28;20035;-64
2023/11/20 06:24:36;;;;;;;0.45;0.40;;;11.90;99.90;;;;;;4968457;28;20145;-64
2023/11/20 06:27:02;;;;;;;1.05;0.30;;;11.90;99.90;;;;;;4968203;28;20038;-64
2023/11/20 06:29:29;;;;;;;0.95;0.50;;;11.90;99.90;;;;;;4968970;28;20777;-64
2023/11/20 06:31:54;;;;;;;1.75;0.30;;;11.80;99.90;;;;;;4964733;28;20035;-64
2023/11/20 06:34:20;;;;;;;0.50;0.50;;;11.80;99.90;;;;;;4964132;28;20515;-64
2023/11/20 06:36:47;;;;;;;0.88;0.65;;;11.80;99.90;;;;;;4963999;28;20037;-64
2023/11/20 06:39:13;;;;;;;0.85;0.50;;;11.80;99.90;;;;;;4961063;28;20046;-64
2023/11/20 06:41:39;;;;;;;1.20;0.63;;;11.90;99.90;;;;;;4963930;28;20031;-64
2023/11/20 06:44:05;;;;;;;0.95;0.57;;;11.90;99.90;;;;;;4960992;28;20031;-64
2023/11/20 06:46:31;;;;;;;1.48;0.60;;;11.90;99.90;;;;;;4948459;28;20042;-64
2023/11/20 06:48:57;;;;;;;0.98;0.60;;;11.90;99.90;;;;;;4947221;28;20037;-64
2023/11/20 06:51:23;;;;;;;0.80;0.40;;;11.90;99.90;;;;;;4964809;28;20023;-64
2023/11/20 06:53:49;;;;;;;0.80;0.40;;;11.90;99.90;;;;;;4965343;28;20065;-64
2023/11/20 06:56:16;;;;;;;2.85;0.73;;;11.90;99.90;;;;;;4968701;28;20053;-64
2023/11/20 06:58:43;;;;;;;1.58;1.48;;;11.90;99.90;;;;;;4967178;28;20090;-64
2023/11/20 07:01:09;;;;;;;1.30;1.20;;;11.90;99.90;;;;;;4953032;28;20065;-64
2023/11/20 07:03:35;;;;;;;1.40;1.30;;;11.90;99.90;;;;;;4963638;28;20498;-64
2023/11/20 07:06:02;;;;;;;1.13;1.02;;;11.90;99.90;;;;;;4966362;28;20019;-65
2023/11/20 07:08:29;;;;;;;0.80;0.80;;;11.90;99.90;;;;;;4961690;28;20062;-64
2023/11/20 07:10:56;;;;;;;0.85;0.85;;;12.00;99.90;;;;;;4965331;28;20039;-64
2023/11/20 07:13:23;;;;;;;0.80;0.80;;;12.00;99.90;;;;;;4963109;28;20031;-64
2023/11/20 07:15:48;;;;;;;1.10;0.80;;;11.90;99.90;;;;;;4944803;28;20031;-64
2023/11/20 07:18:14;;;;;;;1.10;0.63;;;12.00;99.90;;;;;;4965397;28;20124;-64
2023/11/20 07:20:42;;;;;;;1.30;0.85;;;12.00;99.90;;;;;;4963318;28;20081;-64
2023/11/20 07:23:08;;;;;;;1.20;1.10;;;12.00;99.90;;;;;;4964087;28;20117;-64
2023/11/20 07:25:34;;;;;;;1.05;1.02;;;12.00;99.90;;;;;;4965214;28;20031;-64
2023/11/20 07:28:04;;;;;;;1.63;1.30;;;12.00;99.90;;;;;;4972591;28;20078;-64
2023/11/20 07:30:31;;;;;;;1.60;1.05;;;12.10;99.90;;;;;;4960015;28;20034;-64
2023/11/20 07:32:57;;;;;;;1.25;0.90;;;12.10;99.90;;;;;;4959739;28;20033;-64
2023/11/20 07:35:23;;;;;;;0.85;0.85;;;12.10;99.90;;;;;;4965485;28;20490;-64
2023/11/20 07:37:49;;;;;;;2.10;1.23;;;12.10;99.90;;;;;;4965170;28;20064;-64
2023/11/20 07:40:15;;;;;;;1.88;1.30;;;12.10;99.90;;;;;;4966865;28;20031;-64
2023/11/20 07:42:42;;;;;;;3.58;1.70;;;12.10;99.90;;;;;;4963535;28;20049;-64
2023/11/20 07:45:08;;;;;;;2.17;1.73;;;12.10;99.90;;;;;;4961248;28;20133;-64
2023/11/20 07:47:34;;;;;;;3.08;2.22;;;12.20;99.90;;;;;;4961861;28;20035;-64
2023/11/20 07:50:00;;;;;;;1.83;1.63;;;12.20;99.90;;;;;;4962493;28;20138;-64
2023/11/20 07:52:26;;;;;;;1.65;1.40;;;12.20;99.90;;;;;;4961446;28;20173;-64
2023/11/20 07:54:53;;;;;;;1.70;0.88;;;12.20;99.90;;;;;;4969500;28;20039;-64
2023/11/20 07:57:21;;;;;;;0.80;0.80;;;12.20;99.90;;;;;;4966224;28;20130;-64
2023/11/20 07:59:48;;;;;;;1.90;0.70;;;12.20;99.90;;;;;;4969073;28;20523;-64
2023/11/20 08:02:14;;;;;;;0.70;0.70;;;12.20;99.90;;;;;;4958114;28;20122;-64
2023/11/20 08:04:41;;;;;;;1.10;1.00;;;12.20;99.90;;;;;;4964146;28;20046;-64
2023/11/20 08:07:07;;;;;;;1.60;1.48;;;12.30;99.90;;;;;;4964161;28;20238;-64
2023/11/20 08:09:33;;;;;;;3.53;2.80;;;12.30;99.90;;;;;;4961827;28;20031;-64
2023/11/20 08:11:59;;;;;;;2.67;2.28;;;12.30;99.90;;;;;;4963057;28;20030;-64
2023/11/20 08:14:26;;;;;;;2.10;1.90;;;12.30;99.90;;;;;;4960294;28;20042;-64
2023/11/20 08:16:54;;;;;;;1.20;1.10;;;12.30;99.90;;;;;;4962291;28;20039;-64
2023/11/20 08:19:22;;;;;;;1.67;1.13;;;12.30;99.90;;;;;;4958630;28;20038;-64
2023/11/20 08:21:49;;;;;;;1.40;0.95;;;12.40;99.90;;;;;;4968771;28;20031;-64
2023/11/20 08:24:15;;;;;;;1.17;0.60;;;12.40;99.90;;;;;;4964311;28;20119;-64
2023/11/20 08:26:41;;;;;;;0.43;0.40;;;12.40;99.90;;;;;;4962902;28;20485;-64
2023/11/20 08:29:07;;;;;;;0.47;0.47;;;12.40;99.90;;;;;;4958505;28;20029;-64
2023/11/20 08:31:35;;;;;;;0.40;0.30;;;12.40;99.90;;;;;;4961529;28;20034;-64
2023/11/20 08:34:01;;;;;;;0.47;0.47;;;12.40;99.90;;;;;;4963187;28;20039;-64
2023/11/20 08:36:27;;;;;;;0.40;0.40;;;12.40;99.90;;;;;;4962398;28;20045;-64
2023/11/20 08:38:53;;;;;;;4.18;0.32;;;12.50;99.90;;;;;;4959068;28;20122;-64
2023/11/20 08:41:19;;;;;;;1.23;0.30;;;12.50;99.90;;;;;;4964433;28;20118;-64
2023/11/20 08:43:44;;;;;;;0.40;0.28;;;12.50;99.90;;;;;;4958450;28;20411;-64
2023/11/20 08:46:10;;;;;;;0.40;0.40;;;12.50;99.90;;;;;;4968265;28;20100;-64
2023/11/20 08:48:36;;;;;;;1.70;0.65;;;12.50;99.90;;;;;;4958103;28;20125;-65
2023/11/20 08:51:03;;;;;;;0.20;0.20;;;12.60;99.90;;;;;;4965931;28;20038;-64
2023/11/20 08:53:28;;;;;;;0.32;0.25;;;12.60;99.90;;;;;;4961090;28;20045;-64
2023/11/20 08:55:54;;;;;;;0.30;0.30;;;12.50;99.90;;;;;;4959436;28;20019;-64
2023/11/20 08:58:20;;;;;;;0.28;0.28;;;12.50;99.90;;;;;;4963963;28;20875;-64
2023/11/20 09:00:46;;;;;;;0.70;0.70;;;12.50;99.90;;;;;;4957208;28;20032;-65
2023/11/20 09:03:13;;;;;;;1.50;1.02;;;12.60;99.90;;;;;;4964056;28;20034;-64
2023/11/20 09:05:39;;;;;;;1.75;1.10;;;12.60;99.90;;;;;;4960032;28;20844;-64
2023/11/20 09:08:06;;;;;;;0.90;0.75;;;12.60;99.90;;;;;;4963504;28;20084;-64
2023/11/20 09:10:32;;;;;;;2.63;1.00;;;12.60;99.90;;;;;;4962837;28;20399;-64
2023/11/20 09:12:57;;;;;;;2.50;0.90;;;12.60;99.90;;;;;;4945564;28;20043;-64
2023/11/20 09:15:26;;;;;;;1.42;0.70;;;12.60;99.90;;;;;;4964286;28;20638;-64
2023/11/20 09:17:53;;;;;;;0.68;0.60;;;12.70;99.90;;;;;;4941944;28;20043;-64
2023/11/20 09:20:21;;;;;;;0.30;0.30;;;12.60;99.90;;;;;;4967163;28;20133;-64
2023/11/20 09:22:48;;;;;;;1.13;0.50;;;12.70;99.90;;;;;;4963195;28;20030;-64
2023/11/20 09:25:15;;;;;;;0.50;0.40;;;12.70;99.90;;;;;;4970034;28;20058;-64
2023/11/20 09:27:41;;;;;;;1.85;0.40;;;12.70;99.90;;;;;;4960996;28;20045;-64
2023/11/20 09:30:10;;;;;;;0.50;0.40;;;12.70;99.90;;;;;;4962140;28;20027;-64
2023/11/20 09:32:36;;;;;;;0.35;0.30;;;12.80;99.90;;;;;;4962721;28;20062;-64
2023/11/20 09:35:02;;;;;;;1.42;0.70;;;12.80;99.90;;;;;;4964498;28;20101;-64
2023/11/20 09:37:28;;;;;;;0.47;0.47;;;12.80;99.90;;;;;;4957294;28;20035;-64
2023/11/20 09:39:54;;;;;;;0.45;0.45;;;12.80;99.90;;;;;;4963424;28;20033;-64
2023/11/20 09:42:22;;;;;;;1.08;0.45;;;12.80;99.90;;;;;;4947387;28;20077;-64
2023/11/20 09:44:49;;;;;;;1.38;0.38;;;12.90;99.90;;;;;;4961035;28;20109;-63
2023/11/20 09:47:17;;;;;;;0.43;0.40;;;12.90;99.90;;;;;;4957429;28;20042;-63
2023/11/20 09:49:44;;;;;;;0.70;0.47;;;12.90;99.90;;;;;;4958206;28;20027;-63
2023/11/20 09:52:12;;;;;;;1.40;0.82;;;12.90;99.90;;;;;;4960405;28;20033;-63
2023/11/20 09:54:41;;;;;;;0.40;0.35;;;12.90;99.90;;;;;;4956234;28;20150;-64
2023/11/20 09:57:09;;;;;;;1.17;0.40;;;12.90;99.90;;;;;;4962343;28;20035;-63
2023/11/20 09:59:36;;;;;;;0.22;0.20;;;12.90;99.90;;;;;;4963643;28;20454;-63
2023/11/20 10:02:02;;;;;;;0.30;0.30;;;12.90;99.90;;;;;;4963966;28;20085;-63
2023/11/20 10:04:29;;;;;;;0.20;0.20;;;12.90;99.90;;;;;;4963427;28;20034;-63
2023/11/20 10:06:55;;;;;;;0.30;0.30;;;12.90;99.90;;;;;;4960160;28;20098;-66
2023/11/20 10:09:22;;;;;;;0.52;0.52;;;12.90;99.90;;;;;;4967272;28;20033;-65
2023/11/20 10:11:52;;;;;;;0.40;0.40;;;13.00;99.90;;;;;;4959676;28;20034;-64
2023/11/20 10:14:19;;;;;;;2.70;2.50;;;13.00;99.90;;;;;;4961474;28;20557;-65
2023/11/20 10:16:46;;;;;;;1.80;1.70;;;13.00;99.90;;;;;;4960214;28;20061;-64
2023/11/20 10:19:15;;;;;;;1.70;1.60;;;13.00;99.90;;;;;;4960222;28;20832;-65
2023/11/20 10:21:42;;;;;;;2.40;2.15;;;13.00;99.90;;;;;;4962786;28;20157;-64
2023/11/20 10:24:11;;;;;;;5.43;4.63;;;13.00;99.90;;;;;;4965022;28;20050;-64
2023/11/20 10:26:42;;;;;;;4.90;4.40;;;13.00;99.90;;;;;;4956075;28;20141;-65
2023/11/20 10:29:09;;;;;;;3.78;3.15;;;13.10;99.90;;;;;;4962795;28;20038;-64
2023/11/20 10:31:46;;;;;;;2.38;2.17;;;13.10;99.90;;;;;;4957875;28;20038;-64
2023/11/20 10:34:13;;;;;;;1.42;0.75;;;13.10;99.90;;;;;;4960503;28;20406;-64
2023/11/20 10:36:42;;;;;;;0.98;0.93;;;13.20;99.90;;;;;;4960302;28;20042;-64
2023/11/20 10:39:09;;;;;;;0.40;0.40;;;13.20;99.90;;;;;;4957004;28;20107;-65
2023/11/20 10:41:42;;;;;;;0.55;0.55;;;13.20;99.90;;;;;;4958808;28;20035;-64
2023/11/20 10:44:08;;;;;;;1.58;1.40;;;13.20;99.90;;;;;;4955620;28;20428;-65
2023/11/20 10:46:34;;;;;;;1.85;1.30;;;13.30;99.90;;;;;;4960970;28;20041;-65
2023/11/20 10:49:07;;;;;;;2.67;1.90;;;13.30;99.90;;;;;;4962893;28;20034;-65
2023/11/20 10:51:36;;;;;;;4.28;2.47;;;13.50;99.90;;;;;;4968702;28;20043;-65
2023/11/20 10:54:12;;;;;;;2.97;2.33;;;13.60;99.90;;;;;;4965010;28;20030;-65
2023/11/20 10:56:40;;;;;;;2.47;1.40;;;13.70;99.90;;;;;;4966316;28;20125;-65
2023/11/20 10:59:08;;;;;;;3.25;2.00;;;13.80;99.90;;;;;;4967837;28;20708;-65
2023/11/20 11:01:35;;;;;;;1.67;1.58;;;13.80;99.90;;;;;;4964056;28;20038;-64
2023/11/20 11:04:01;;;;;;;1.58;1.15;;;13.80;99.90;;;;;;4965142;28;20035;-64
2023/11/20 11:06:27;;;;;;;3.72;2.30;;;13.80;99.90;;;;;;4958496;28;20058;-64
2023/11/20 11:08:54;;;;;;;2.60;1.92;;;13.80;99.90;;;;;;4963683;28;20035;-64
2023/11/20 11:11:22;;;;;;;2.80;1.95;;;13.70;99.90;;;;;;4964061;28;20099;-64
2023/11/20 11:13:52;;;;;;;2.35;1.50;;;13.70;99.90;;;;;;4945393;28;20126;-65
2023/11/20 11:16:38;;;;;;;2.83;1.55;;;13.60;99.90;;;;;;4964175;28;20685;-67
2023/11/20 11:19:11;;;;;;;7.47;3.75;;;13.60;99.90;;;;;;4960728;28;20104;-65
2023/11/20 11:21:57;;;;;;;4.65;3.33;;;13.70;99.90;;;;;;4962467;28;20057;-65
2023/11/20 11:24:25;;;;;;;5.93;3.55;;;13.60;99.90;;;;;;4964554;28;20038;-66
2023/11/20 11:27:17;;;;;;;4.45;3.05;;;13.60;99.90;;;;;;4963058;28;20058;-66
2023/11/20 11:29:49;;;;;;;3.33;2.25;;;13.60;99.90;;;;;;4959989;28;20478;-65
2023/11/20 11:32:30;;;;;;;5.85;2.67;;;13.50;99.90;;;;;;4967628;28;20026;-65
2023/11/20 11:35:45;;;;;;;4.32;2.83;;;13.50;99.90;;;;;;4960888;28;20895;-65
2023/11/20 11:38:33;;;;;;;3.42;2.40;;;13.50;99.90;;;;;;4960586;28;20066;-65
2023/11/20 11:41:26;;;;;;;2.63;2.15;;;13.60;99.90;;;;;;4962188;28;20039;-65
2023/11/20 11:43:59;;;;;;;3.03;2.50;;;13.60;99.90;;;;;;4949669;28;20058;-66
2023/11/20 11:46:25;;;;;;;2.40;2.00;;;13.60;99.90;;;;;;4965682;28;20781;-66
2023/11/20 11:48:51;;;;;;;1.48;1.35;;;13.70;99.90;;;;;;4961837;28;20062;-66
2023/11/20 11:51:24;;;;;;;1.10;1.00;;;13.70;99.90;;;;;;4961363;28;20768;-66
2023/11/20 11:54:13;;;;;;;1.85;0.80;;;13.70;99.90;;;;;;4962154;28;20035;-66
2023/11/20 11:56:52;;;;;;;0.60;0.50;;;13.70;99.90;;;;;;4960936;28;20450;-66
2023/11/20 11:59:31;;;;;;;1.63;0.70;;;13.80;99.90;;;;;;4962876;28;20046;-65
2023/11/20 12:01:58;;;;;;;1.45;1.30;;;13.70;99.90;;;;;;4958817;28;20034;-65
2023/11/20 12:04:49;;;;;;;1.70;1.60;;;13.70;99.90;;;;;;4943757;28;20046;-66
2023/11/20 12:07:35;;;;;;;2.67;2.35;;;13.80;99.90;;;;;;4963112;28;20031;-66
2023/11/20 12:10:03;;;;;;;7.28;6.57;;;13.70;99.90;;;;;;4958150;28;20035;-66
2023/11/20 12:12:57;;;;;;;5.05;4.65;;;13.70;99.90;;;;;;4963662;28;20035;-65
2023/11/20 12:15:38;;;;;;;5.50;5.00;;;13.80;99.90;;;;;;4960036;28;20035;-65
2023/11/20 12:18:10;;;;;;;6.38;5.25;;;13.70;99.90;;;;;;4960716;28;20764;-66
2023/11/20 12:20:37;;;;;;;39.88;18.38;;;13.70;99.90;;;;;;4962004;28;20058;-65
2023/11/20 12:23:06;;;;;;;37.15;18.48;;;13.80;99.90;;;;;;4960534;28;20577;-66
2023/11/20 12:25:38;;;;;;;25.88;12.40;;;13.90;99.90;;;;;;4960563;28;20055;-65
2023/11/20 12:28:08;;;;;;;13.38;7.07;;;13.90;99.90;;;;;;4959724;28;20034;-66
2023/11/20 12:30:34;;;;;;;6.43;4.80;;;13.90;99.90;;;;;;4962898;28;20058;-66
2023/11/20 12:33:02;;;;;;;3.97;2.67;;;13.90;99.90;;;;;;4965324;28;20116;-66
2023/11/20 12:35:29;;;;;;;2.17;1.95;;;13.90;99.90;;;;;;4960922;28;20035;-65
2023/11/20 12:37:55;;;;;;;2.22;1.40;;;13.90;99.90;;;;;;4963266;28;20034;-66
2023/11/20 12:40:21;;;;;;;1.45;1.10;;;13.90;99.90;;;;;;4962633;28;20423;-65
2023/11/20 12:42:47;;;;;;;1.50;1.40;;;14.00;99.90;;;;;;4962671;28;20035;-66
2023/11/20 12:45:13;;;;;;;1.27;1.17;;;14.00;99.90;;;;;;4962939;28;20026;-66
2023/11/20 12:47:39;;;;;;;2.00;1.77;;;14.00;99.90;;;;;;4957258;28;20038;-65